Time;durP1;ratioP1;P1;durP2;ratioP2;P2;SDS_P1;SDS_P2;PMS_P1;PMS_P2;Temp;Humidity;BMP_temperature;BMP_pressure;BME280_temperature;BME280_humidity;BME280_pressure;Samples;Min_cycle;Max_cycle;Signal;HPM_P1;HPM_P2
2022/02/06 00:00:15;;;;;;;6.80;4.20;;;;;;;9.10;53.96;100208.63;5050192;28;20063;-37
2022/02/06 00:02:45;;;;;;;6.60;4.20;;;;;;;9.34;53.00;100205.69;5048836;28;20100;-37
2022/02/06 00:05:11;;;;;;;6.93;4.07;;;;;;;9.10;53.70;100214.78;5050058;28;20510;-38
2022/02/06 00:07:37;;;;;;;6.75;4.40;;;;;;;9.23;53.65;100218.63;5049142;28;20104;-38
2022/02/06 00:10:03;;;;;;;7.07;4.47;;;;;;;9.25;53.22;100216.59;5049816;28;20179;-38
2022/02/06 00:12:28;;;;;;;7.43;4.50;;;;;;;9.15;53.75;100217.69;5050190;28;20475;-38
2022/02/06 00:14:54;;;;;;;6.75;4.00;;;;;;;8.88;54.26;100220.97;5049885;28;20029;-38
2022/02/06 00:17:20;;;;;;;7.20;4.60;;;;;;;8.98;54.00;100225.00;5050132;28;20029;-38
2022/02/06 00:19:45;;;;;;;7.05;4.30;;;;;;;9.04;53.75;100225.28;5050178;28;20054;-37
2022/02/06 00:22:26;;;;;;;6.88;4.60;;;;;;;9.22;53.47;100223.13;5049915;28;20025;-37
2022/02/06 00:25:08;;;;;;;5.78;3.83;;;;;;;9.19;53.29;100231.44;5049986;28;20508;-37
2022/02/06 00:27:47;;;;;;;7.03;4.30;;;;;;;9.12;53.10;100234.00;5049699;28;20025;-37
2022/02/06 00:32:49;;;;;;;8.80;4.13;;;;;;;8.87;53.86;100257.31;5049922;28;20024;-37
2022/02/06 00:35:27;;;;;;;6.93;4.35;;;;;;;8.95;53.56;100249.28;5051868;28;20478;-37
2022/02/06 00:43:16;;;;;;;7.18;4.25;;;;;;;8.81;53.90;100250.06;5042820;28;20480;-38
2022/02/06 00:45:42;;;;;;;7.15;4.35;;;;;;;8.67;54.35;100248.22;5053230;28;20029;-38
2022/02/06 00:48:07;;;;;;;10.57;4.30;;;;;;;8.59;54.39;100252.56;5051961;28;20029;-38
2022/02/06 00:50:36;;;;;;;6.82;4.40;;;;;;;8.73;54.28;100258.91;5051780;28;20028;-38
2022/02/06 00:53:16;;;;;;;8.90;4.70;;;;;;;8.81;54.03;100252.72;5052993;28;20473;-38
2022/02/06 00:55:42;;;;;;;8.13;4.45;;;;;;;8.54;54.98;100256.75;5053146;28;20033;-38
2022/02/06 00:58:08;;;;;;;7.10;4.50;;;;;;;8.51;55.00;100257.09;5052812;28;20083;-37
2022/02/06 01:00:33;;;;;;;6.63;4.38;;;;;;;8.61;55.00;100257.69;5052595;28;20029;-38
2022/02/06 01:02:59;;;;;;;8.05;4.80;;;;;;;8.31;56.13;100248.78;5053086;28;20032;-37
2022/02/06 01:05:24;;;;;;;7.28;4.63;;;;;;;8.41;55.57;100249.34;5052882;28;20033;-38
2022/02/06 01:07:51;;;;;;;8.23;4.88;;;;;;;8.43;55.41;100247.38;5052761;28;20036;-37
2022/02/06 01:10:16;;;;;;;7.10;4.55;;;;;;;8.57;55.13;100241.31;5052707;28;20056;-37
2022/02/06 01:12:47;;;;;;;7.60;4.30;;;;;;;8.34;55.53;100251.91;5039015;28;20048;-37
2022/02/06 01:15:20;;;;;;;7.43;4.07;;;;;;;8.49;54.92;100245.84;5032812;28;20029;-37
2022/02/06 01:17:55;;;;;;;7.90;4.30;;;;;;;8.49;54.85;100251.16;5032899;28;20035;-37
2022/02/06 01:20:41;;;;;;;6.93;4.35;;;;;;;8.37;55.01;100261.31;5032859;28;20039;-37
2022/02/06 01:23:23;;;;;;;6.47;4.13;;;;;;;8.09;56.15;100259.19;5032818;28;20045;-37
2022/02/06 01:26:00;;;;;;;8.45;4.70;;;;;;;8.15;56.00;100258.47;5033252;28;20155;-38
2022/02/06 01:28:36;;;;;;;7.35;4.40;;;;;;;8.09;56.26;100269.78;5033140;28;20108;-37
2022/02/06 01:31:29;;;;;;;7.97;4.70;;;;;;;8.01;56.70;100260.06;5032341;28;20029;-37
2022/02/06 01:33:51;;;;;;;8.43;4.57;;;;;;;8.06;56.36;100254.22;5032390;28;20132;-38
2022/02/06 01:41:18;;;;;;;7.25;4.60;;;;;;;8.08;56.19;100272.59;5032335;28;20476;-37
2022/02/06 01:43:50;;;;;;;6.22;4.05;;;;;;;8.19;56.25;100259.78;5032475;28;20029;-38
2022/02/06 02:31:56;;;;;;;6.80;3.78;;;;;;;7.88;54.59;100243.06;5031577;28;20026;-38
2022/02/06 02:47:39;;;;;;;7.18;3.80;;;;;;;7.81;55.68;100257.00;5031073;28;20034;-37
2022/02/06 02:50:12;;;;;;;5.88;3.63;;;;;;;7.73;56.04;100264.13;5031423;28;20405;-37
2022/02/06 02:58:08;;;;;;;;;;;;;;;7.90;56.29;100271.03;5030681;28;20136;-37
2022/02/06 03:00:44;;;;;;;6.05;4.03;;;;;;;7.76;57.29;100271.75;5030868;28;20376;-37
2022/02/06 03:03:15;;;;;;;6.57;4.40;;;;;;;7.64;57.75;100266.00;5031003;28;20036;-37
2022/02/06 03:05:42;;;;;;;9.32;4.50;;;;;;;7.70;58.15;100267.16;5030741;28;20021;-37
2022/02/06 03:08:08;;;;;;;7.18;4.60;;;;;;;7.70;57.89;100270.63;5034377;28;20028;-38
2022/02/06 03:10:35;;;;;;;5.97;4.15;;;;;;;7.55;58.38;100267.84;5050728;28;20074;-38
2022/02/06 03:13:06;;;;;;;9.20;4.32;;;;;;;7.47;59.12;100273.19;5034500;28;20045;-37
2022/02/06 03:15:36;;;;;;;7.95;4.40;;;;;;;7.63;58.96;100267.84;5030563;28;20053;-38
2022/02/06 03:18:04;;;;;;;6.72;4.38;;;;;;;7.83;57.98;100260.28;5030786;28;20405;-38
2022/02/06 03:20:31;;;;;;;6.47;4.40;;;;;;;7.76;58.18;100267.28;5030514;28;20419;-37
2022/02/06 03:23:00;;;;;;;6.55;4.55;;;;;;;7.77;57.81;100261.00;5030267;28;20026;-37
2022/02/06 03:25:26;;;;;;;6.72;4.45;;;;;;;7.79;57.85;100255.53;5030464;28;20041;-38
2022/02/06 03:27:52;;;;;;;6.15;4.13;;;;;;;7.57;58.15;100257.09;5030682;28;20179;-38
2022/02/06 03:30:18;;;;;;;7.43;4.40;;;;;;;7.02;59.88;100256.06;5030694;28;20033;-37
2022/02/06 03:32:43;;;;;;;7.63;4.18;;;;;;;7.21;59.22;100257.53;5030323;28;20477;-37
2022/02/06 03:35:09;;;;;;;7.15;4.32;;;;;;;7.30;59.41;100263.66;5030572;28;20026;-37
2022/02/06 03:37:34;;;;;;;7.47;4.70;;;;;;;7.12;59.42;100250.59;5030815;28;20104;-37
2022/02/06 03:40:04;;;;;;;6.70;4.38;;;;;;;6.96;60.12;100251.47;5030471;28;20479;-37
2022/02/06 03:42:35;;;;;;;6.45;3.90;;;;;;;7.04;59.60;100254.94;5030746;28;20033;-37
2022/02/06 03:45:05;;;;;;;8.30;4.30;;;;;;;7.01;59.87;100251.78;5029668;28;20025;-37
2022/02/06 03:47:46;;;;;;;8.00;4.20;;;;;;;7.03;59.38;100255.09;5029779;28;20354;-37
2022/02/06 03:50:14;;;;;;;6.18;4.07;;;;;;;6.92;60.23;100255.44;5030010;28;20021;-37
2022/02/06 03:52:46;;;;;;;6.93;4.25;;;;;;;6.88;60.39;100252.28;5030209;28;20030;-37
2022/02/06 03:55:18;;;;;;;6.70;4.20;;;;;;;6.88;60.40;100251.47;5030191;28;20029;-37
2022/02/06 03:57:45;;;;;;;7.32;4.22;;;;;;;6.73;61.00;100264.53;5030036;28;20022;-37
2022/02/06 04:00:11;;;;;;;8.05;4.50;;;;;;;6.67;61.32;100267.84;5030433;28;20104;-37
2022/02/06 04:02:36;;;;;;;6.72;4.32;;;;;;;6.49;61.80;100265.34;5030075;28;20458;-37
2022/02/06 04:05:02;;;;;;;6.32;4.10;;;;;;;6.51;62.06;100269.50;5030318;28;20129;-37
2022/02/06 04:07:27;;;;;;;8.57;4.57;;;;;;;6.51;61.85;100269.50;5029919;28;20500;-37
2022/02/06 04:09:55;;;;;;;8.50;4.82;;;;;;;6.72;62.12;100266.38;5049683;28;20056;-38
2022/02/06 04:12:22;;;;;;;8.15;4.68;;;;;;;6.60;62.08;100267.66;5053680;28;20043;-37
2022/02/06 04:15:25;;;;;;;7.75;5.05;;;;;;;6.57;61.67;100268.84;5054083;28;20033;-37
2022/02/06 04:17:50;;;;;;;7.25;4.75;;;;;;;6.41;62.37;100266.97;5053580;28;20055;-38
2022/02/06 04:20:16;;;;;;;8.23;5.10;;;;;;;6.36;63.01;100271.09;5053696;28;20032;-37
2022/02/06 04:22:41;;;;;;;7.75;5.20;;;;;;;6.34;63.34;100273.09;5053873;28;20017;-37
2022/02/06 04:25:07;;;;;;;7.47;5.05;;;;;;;6.42;62.49;100275.75;5053681;28;20033;-37
2022/02/06 04:27:32;;;;;;;8.52;5.15;;;;;;;6.55;61.99;100270.81;5053859;28;20031;-38
2022/02/06 04:29:58;;;;;;;7.10;5.03;;;;;;;6.50;62.32;100286.34;5053473;28;20039;-37
2022/02/06 04:32:26;;;;;;;8.30;5.40;;;;;;;6.48;62.69;100285.69;5053571;28;20017;-37
2022/02/06 04:34:52;;;;;;;8.00;5.07;;;;;;;6.51;62.04;100292.44;5052157;28;20503;-36
2022/02/06 05:23:01;;;;;;;6.68;4.55;;;;;;;6.61;57.97;100341.56;5052494;28;20083;-38
2022/02/06 05:30:13;;;;;;;7.88;4.90;;;;;;;6.41;59.58;100348.13;5052482;28;20553;-38
2022/02/06 05:32:48;;;;;;;10.02;5.40;;;;;;;6.56;59.80;100356.25;5052499;28;20021;-37
2022/02/06 05:35:13;;;;;;;8.35;5.18;;;;;;;6.59;59.12;100355.94;5051423;28;20025;-37
2022/02/06 05:37:39;;;;;;;8.77;5.38;;;;;;;6.48;59.10;100359.72;5052000;28;20396;-37
2022/02/06 05:40:05;;;;;;;15.38;9.48;;;;;;;6.54;58.62;100347.66;5052488;28;20036;-37
2022/02/06 05:42:30;;;;;;;16.85;6.90;;;;;;;6.42;59.62;100355.91;5052149;28;20054;-37
2022/02/06 05:44:56;;;;;;;12.63;7.00;;;;;;;6.99;57.86;100365.75;5052354;28;20516;-38
2022/02/06 05:47:23;;;;;;;27.30;14.60;;;;;;;7.08;57.77;100365.75;5052079;28;20029;-38
2022/02/06 05:49:49;;;;;;;8.88;5.28;;;;;;;7.23;57.02;100358.78;5051931;28;20024;-37
2022/02/06 05:52:14;;;;;;;9.98;5.95;;;;;;;7.45;56.32;100357.28;5052034;28;20036;-38
2022/02/06 05:54:39;;;;;;;11.45;6.55;;;;;;;7.58;55.83;100359.41;5052002;28;20499;-37
2022/02/06 05:57:05;;;;;;;11.05;6.80;;;;;;;7.79;54.71;100359.69;5051964;28;20029;-37
2022/02/06 05:59:31;;;;;;;9.50;6.15;;;;;;;7.64;54.76;100359.56;5051844;28;20025;-38
2022/02/06 06:01:56;;;;;;;12.27;6.78;;;;;;;8.04;53.78;100370.19;5051825;28;20025;-36
2022/02/06 06:04:22;;;;;;;14.75;8.20;;;;;;;7.89;54.32;100364.78;5051659;28;20535;-37
2022/02/06 06:06:47;;;;;;;10.95;6.38;;;;;;;7.89;53.93;100369.25;5051638;28;20408;-37
2022/02/06 06:09:13;;;;;;;12.30;6.70;;;;;;;8.34;52.84;100365.09;5051432;28;20033;-37
2022/02/06 06:11:38;;;;;;;9.80;5.82;;;;;;;8.42;52.13;100367.75;5051005;28;20527;-37
2022/02/06 06:14:04;;;;;;;12.60;4.95;;;;;;;8.56;51.84;100369.63;5051571;28;20044;-37
2022/02/06 06:16:32;;;;;;;8.88;4.75;;;;;;;8.77;50.94;100366.34;5051885;28;20053;-38
2022/02/06 06:18:58;;;;;;;7.80;4.70;;;;;;;8.82;49.98;100376.47;5051596;28;20040;-38
2022/02/06 06:21:25;;;;;;;10.77;6.05;;;;;;;8.97;49.54;100380.00;5051582;28;20021;-36
2022/02/06 06:23:53;;;;;;;10.65;5.00;;;;;;;9.07;49.52;100376.28;5051961;28;20043;-38
2022/02/06 06:26:21;;;;;;;7.85;4.90;;;;;;;9.26;49.02;100381.09;5051640;28;20099;-49
2022/02/06 06:28:46;;;;;;;6.78;4.60;;;;;;;9.72;48.02;100382.81;5050138;28;20029;-49
2022/02/06 06:31:11;;;;;;;6.90;4.43;;;;;;;9.61;48.03;100386.75;5049716;28;20060;-48
2022/02/06 06:33:37;;;;;;;6.90;4.90;;;;;;;9.90;47.65;100388.63;5050630;28;20029;-51
2022/02/06 06:36:04;;;;;;;8.05;4.20;;;;;;;10.07;46.98;100388.41;5050917;28;20407;-50
2022/02/06 06:38:32;;;;;;;6.32;4.65;;;;;;;10.16;46.37;100390.78;5051111;28;20401;-38
2022/02/06 06:40:57;;;;;;;6.47;4.20;;;;;;;10.07;46.66;100386.59;5051184;28;20028;-38
2022/02/06 06:43:23;;;;;;;6.85;4.47;;;;;;;10.49;46.15;100392.22;5050985;28;20028;-38
2022/02/06 06:45:48;;;;;;;8.45;4.22;;;;;;;10.29;45.51;100394.63;5051206;28;20037;-48
2022/02/06 06:48:14;;;;;;;7.63;4.28;;;;;;;10.10;46.61;100393.38;5051154;28;20050;-37
2022/02/06 06:50:39;;;;;;;8.10;4.32;;;;;;;10.51;44.78;100399.03;5051053;28;20032;-37
2022/02/06 06:53:07;;;;;;;5.72;3.78;;;;;;;10.62;45.04;100391.56;5051034;28;20029;-37
2022/02/06 06:55:35;;;;;;;6.60;3.95;;;;;;;10.72;43.91;100394.75;5051386;28;20132;-47
2022/02/06 06:58:11;;;;;;;6.40;4.45;;;;;;;11.19;42.85;100398.69;5050652;28;20449;-49
2022/02/06 07:03:24;;;;;;;6.78;3.90;;;;;;;11.14;43.23;100399.28;5051227;28;20121;-39
2022/02/06 07:05:49;;;;;;;;;;;;;;;11.46;42.64;100414.91;5050003;28;20064;-38
2022/02/06 07:08:16;;;;;;;5.80;3.80;;;;;;;11.31;42.67;100405.16;5050651;28;19913;-46
2022/02/06 07:10:43;;;;;;;6.53;4.00;;;;;;;11.77;42.44;100408.38;5050421;28;20053;-48
2022/02/06 07:13:08;;;;;;;6.50;4.10;;;;;;;12.18;40.39;100410.28;5033427;28;20383;-49
2022/02/06 07:15:34;;;;;;;8.13;4.20;;;;;;;11.23;42.52;100405.31;5030796;28;20060;-48
2022/02/06 07:17:59;;;;;;;6.65;4.45;;;;;;;11.48;42.03;100410.19;5030794;28;20480;-49
2022/02/06 07:20:24;;;;;;;8.20;4.22;;;;;;;11.93;40.95;100408.09;5030881;28;20029;-52
2022/02/06 07:22:50;;;;;;;9.77;6.30;;;;;;;11.28;42.05;100408.19;5030439;28;20206;-49
2022/02/06 07:25:15;;;;;;;7.25;4.47;;;;;;;11.65;41.07;100413.41;5030640;28;20026;-50
2022/02/06 07:27:46;;;;;;;5.78;4.20;;;;;;;12.16;40.33;100406.97;5030840;28;20088;-49
2022/02/06 07:30:12;;;;;;;9.48;4.00;;;;;;;11.98;40.93;100403.00;5030535;28;20048;-52
2022/02/06 07:32:38;;;;;;;6.25;3.50;;;;;;;11.85;39.75;100419.69;5030700;28;20489;-54
2022/02/06 07:35:05;;;;;;;5.70;3.67;;;;;;;11.99;40.47;100417.97;5030493;28;20491;-48
2022/02/06 07:37:31;;;;;;;5.97;4.07;;;;;;;12.27;39.46;100414.44;5030712;28;20112;-49
2022/02/06 07:39:56;;;;;;;5.38;3.67;;;;;;;12.22;39.96;100412.38;5030137;28;20043;-47
2022/02/06 07:42:22;;;;;;;5.45;3.63;;;;;;;12.41;38.66;100423.31;5030685;28;20032;-49
2022/02/06 07:44:49;;;;;;;6.07;3.78;;;;;;;12.70;38.39;100425.69;5033362;28;20377;-49
2022/02/06 07:47:17;;;;;;;7.18;3.92;;;;;;;12.82;37.96;100417.91;5034378;28;20029;-48
2022/02/06 07:49:45;;;;;;;6.72;4.18;;;;;;;12.33;39.30;100418.97;5034465;28;20032;-51
2022/02/06 07:52:11;;;;;;;5.95;4.00;;;;;;;12.91;38.85;100419.38;5034097;28;20091;-48
2022/02/06 07:54:36;;;;;;;5.65;3.90;;;;;;;12.51;38.45;100421.94;5034518;28;20128;-50
2022/02/06 07:57:04;;;;;;;6.53;3.95;;;;;;;12.29;37.99;100413.19;5032892;28;20110;-48
2022/02/06 07:59:30;;;;;;;6.70;3.90;;;;;;;12.67;38.13;100407.38;5034472;28;20418;-49
2022/02/06 08:01:55;;;;;;;7.38;3.92;;;;;;;12.44;38.46;100417.59;5033808;28;20465;-50
2022/02/06 08:04:21;;;;;;;7.65;4.60;;;;;;;12.22;39.35;100415.03;5034320;28;20025;-48
2022/02/06 08:06:46;;;;;;;5.78;3.97;;;;;;;11.92;39.12;100419.78;5034169;28;20044;-48
2022/02/06 08:09:12;;;;;;;8.65;4.40;;;;;;;12.24;39.45;100399.66;5046286;28;20020;-49
2022/02/06 08:11:44;;;;;;;7.22;4.50;;;;;;;12.90;38.06;100417.72;5053845;28;20132;-49
2022/02/06 08:14:09;;;;;;;6.85;4.28;;;;;;;12.65;38.54;100419.31;5053032;28;20065;-49
2022/02/06 08:16:35;;;;;;;12.23;4.93;;;;;;;12.71;38.01;100415.81;5053500;28;20100;-52
2022/02/06 08:19:00;;;;;;;10.50;5.13;;;;;;;12.93;38.49;100416.50;5053152;28;20085;-49
2022/02/06 08:21:26;;;;;;;11.95;5.30;;;;;;;12.59;38.74;100428.94;5054059;28;20025;-50
2022/02/06 08:23:51;;;;;;;9.02;5.38;;;;;;;12.38;38.57;100421.88;5052844;28;20473;-37
2022/02/06 08:26:17;;;;;;;8.02;5.78;;;;;;;13.14;37.80;100423.53;5053415;28;20067;-37
2022/02/06 08:28:42;;;;;;;10.35;6.55;;;;;;;13.20;37.86;100428.06;5053962;28;20048;-38
2022/02/06 08:31:08;;;;;;;9.18;5.57;;;;;;;12.87;38.24;100420.81;5053294;28;20029;-38
2022/02/06 08:33:33;;;;;;;8.30;5.72;;;;;;;12.95;37.63;100429.66;5052481;28;20036;-38
2022/02/06 08:35:59;;;;;;;8.35;5.57;;;;;;;12.96;36.80;100425.97;5053510;28;20025;-38
2022/02/06 08:38:25;;;;;;;8.05;5.03;;;;;;;12.96;36.16;100428.63;5053430;28;20477;-39
2022/02/06 08:40:50;;;;;;;25.25;14.95;;;;;;;13.25;36.26;100430.09;5053372;28;20013;-39
2022/02/06 08:43:16;;;;;;;13.48;5.10;;;;;;;13.43;35.40;100418.84;5053459;28;20028;-38
2022/02/06 08:45:41;;;;;;;9.13;5.43;;;;;;;13.91;34.96;100423.13;5053486;28;20021;-38
2022/02/06 08:48:07;;;;;;;10.63;5.55;;;;;;;13.47;35.34;100420.91;5053578;28;20044;-38
2022/02/06 08:50:33;;;;;;;8.48;5.05;;;;;;;13.88;34.65;100430.53;5052711;28;20025;-38
2022/02/06 08:52:59;;;;;;;9.50;5.25;;;;;;;13.88;34.36;100432.41;5051703;28;20020;-36
2022/02/06 08:55:26;;;;;;;10.60;5.95;;;;;;;13.80;34.61;100413.88;5052102;28;20028;-37
2022/02/06 08:57:51;;;;;;;7.68;4.97;;;;;;;13.60;35.22;100420.06;5053209;28;20024;-38
2022/02/06 09:00:18;;;;;;;7.82;4.93;;;;;;;14.30;34.35;100422.22;5051948;28;20021;-38
2022/02/06 09:02:43;;;;;;;8.18;5.40;;;;;;;13.51;35.82;100425.84;5052534;28;20409;-38
2022/02/06 09:05:09;;;;;;;9.77;5.90;;;;;;;13.62;36.22;100431.38;5052775;28;20020;-50
2022/02/06 09:07:34;;;;;;;8.35;5.15;;;;;;;13.97;35.64;100425.78;5052567;28;20029;-52
2022/02/06 09:10:01;;;;;;;7.60;4.80;;;;;;;13.57;35.69;100425.00;5052076;28;20056;-50
2022/02/06 09:12:27;;;;;;;6.20;4.32;;;;;;;14.25;34.37;100422.81;5052746;28;20033;-50
2022/02/06 09:14:53;;;;;;;6.95;4.25;;;;;;;14.42;33.27;100419.69;5053062;28;20037;-50
2022/02/06 09:17:19;;;;;;;8.02;4.60;;;;;;;13.93;34.69;100419.19;5052822;28;20023;-50
2022/02/06 09:19:45;;;;;;;6.80;4.00;;;;;;;13.96;34.78;100410.75;5052977;28;20064;-49
2022/02/06 09:22:11;;;;;;;7.13;4.43;;;;;;;14.22;34.59;100417.06;5052590;28;20100;-49
2022/02/06 09:24:36;;;;;;;6.68;4.20;;;;;;;14.00;34.76;100420.00;5052770;28;20516;-49
2022/02/06 09:27:02;;;;;;;6.03;4.50;;;;;;;13.99;34.97;100422.91;5052606;28;20520;-51
2022/02/06 09:29:28;;;;;;;10.25;4.72;;;;;;;14.34;34.47;100415.38;5052419;28;20028;-52
2022/02/06 09:31:53;;;;;;;6.55;4.50;;;;;;;14.33;34.63;100407.56;5052076;28;20044;-51
2022/02/06 09:36:44;;;;;;;6.80;4.20;;;;;;;14.11;34.82;100412.38;5052357;28;20469;-51
2022/02/06 09:39:10;;;;;;;6.80;4.60;;;;;;;14.26;33.89;100402.25;5052516;28;20021;-51
2022/02/06 09:41:46;;;;;;;12.18;4.75;;;;;;;14.70;33.60;100400.63;5051935;28;20417;-47
2022/02/06 09:44:15;;;;;;;7.88;4.00;;;;;;;14.74;33.67;100409.06;5052038;28;20478;-49
2022/02/06 09:46:41;;;;;;;5.10;3.67;;;;;;;14.79;33.80;100402.03;5050959;28;20184;-51
2022/02/06 09:49:06;;;;;;;7.00;3.90;;;;;;;14.57;33.78;100392.66;5050835;28;20538;-49
2022/02/06 09:51:32;;;;;;;4.60;3.45;;;;;;;15.15;32.86;100386.31;5040075;28;20035;-50
2022/02/06 09:53:59;;;;;;;5.55;3.83;;;;;;;15.05;33.21;100384.13;5032028;28;20064;-51
2022/02/06 09:56:27;;;;;;;7.70;3.90;;;;;;;15.20;32.91;100387.31;5032030;28;20155;-49
2022/02/06 09:58:58;;;;;;;5.15;3.65;;;;;;;15.04;33.64;100380.63;5030717;28;20057;-50
2022/02/06 10:01:24;;;;;;;7.15;3.78;;;;;;;15.23;33.14;100391.41;5030534;28;20123;-50
2022/02/06 10:03:50;;;;;;;5.00;3.40;;;;;;;14.93;33.18;100381.31;5031897;28;20112;-50
2022/02/06 10:06:23;;;;;;;6.65;3.78;;;;;;;15.10;33.18;100375.41;5030459;28;20025;-52
2022/02/06 10:08:58;;;;;;;5.57;3.80;;;;;;;14.90;33.37;100372.91;5041286;28;20025;-51
2022/02/06 10:11:24;;;;;;;5.32;3.75;;;;;;;14.82;33.28;100361.38;5034343;28;20084;-51
2022/02/06 10:13:50;;;;;;;5.18;3.47;;;;;;;14.69;33.22;100363.34;5050294;28;20025;-51
2022/02/06 10:16:16;;;;;;;6.15;4.00;;;;;;;14.60;33.75;100362.75;5049796;28;20056;-48
2022/02/06 10:18:43;;;;;;;5.15;3.70;;;;;;;14.90;33.47;100359.50;5051327;28;20092;-49
2022/02/06 10:21:13;;;;;;;7.47;3.97;;;;;;;14.56;34.68;100350.81;5051356;28;20036;-51
2022/02/06 10:23:45;;;;;;;6.18;3.53;;;;;;;14.95;33.55;100354.31;5050014;28;20553;-51
2022/02/06 10:26:34;;;;;;;5.20;3.70;;;;;;;14.94;32.93;100341.94;5051369;28;20433;-50
2022/02/06 10:29:40;;;;;;;7.95;3.85;;;;;;;14.81;32.90;100345.53;5051199;28;20028;-48
2022/02/06 10:32:01;;;;;;;4.75;3.78;;;;;;;15.01;33.92;100340.84;5050736;28;20044;-50
2022/02/06 10:34:28;;;;;;;5.32;3.58;;;;;;;14.99;33.42;100334.06;5050914;28;20029;-51
2022/02/06 10:37:20;;;;;;;6.25;3.80;;;;;;;15.25;32.74;100316.97;5051278;28;20548;-49
2022/02/06 10:40:06;;;;;;;6.20;3.58;;;;;;;15.18;33.04;100324.22;5049737;28;20045;-51
2022/02/06 10:42:36;;;;;;;7.20;3.80;;;;;;;15.41;32.60;100320.94;5050664;28;20104;-49
2022/02/06 10:45:12;;;;;;;5.45;3.65;;;;;;;15.38;32.79;100308.78;5050748;28;20025;-49
2022/02/06 10:47:38;;;;;;;5.00;3.53;;;;;;;15.39;32.45;100306.91;5051103;28;20025;-52
2022/02/06 10:50:11;;;;;;;7.50;3.60;;;;;;;15.71;32.32;100298.75;5049647;28;20037;-52
2022/02/06 10:52:37;;;;;;;6.10;3.80;;;;;;;15.62;31.74;100296.34;5038921;28;20124;-50
2022/02/06 10:55:03;;;;;;;5.93;3.30;;;;;;;15.88;31.54;100286.41;5034938;28;20051;-51
2022/02/06 10:57:28;;;;;;;5.47;3.30;;;;;;;16.10;31.19;100264.44;5031312;28;20025;-52
2022/02/06 10:59:54;;;;;;;4.53;3.33;;;;;;;15.86;31.32;100285.81;5030151;28;20393;-50
2022/02/06 11:02:26;;;;;;;6.03;3.38;;;;;;;15.95;31.75;100270.19;5031698;28;20033;-52
2022/02/06 11:04:58;;;;;;;3.88;3.17;;;;;;;15.80;35.86;100275.94;5034189;28;20037;-53
2022/02/06 11:07:23;;;;;;;5.95;3.50;;;;;;;16.37;31.56;100263.03;5047963;28;20028;-52
2022/02/06 11:09:49;;;;;;;5.97;3.55;;;;;;;16.57;31.91;100268.09;5050732;28;20449;-49
2022/02/06 11:12:17;;;;;;;5.28;3.33;;;;;;;16.87;31.22;100269.09;5051450;28;20040;-52
2022/02/06 11:14:51;;;;;;;6.78;5.22;;;;;;;16.71;32.01;100259.81;5043797;28;20043;-47
2022/02/06 11:17:23;;;;;;;4.20;3.10;;;;;;;15.87;30.97;100255.22;5031053;28;20496;-51
2022/02/06 11:20:04;;;;;;;5.85;3.00;;;;;;;15.77;31.54;100257.63;5030806;28;20116;-53
2022/02/06 11:22:29;;;;;;;;;;;;;;;16.22;31.92;100258.06;5031598;28;20049;-51
2022/02/06 11:24:55;;;;;;;3.85;2.75;;;;;;;16.31;31.56;100247.81;5035615;28;20626;-51
2022/02/06 11:27:20;;;;;;;4.75;2.80;;;;;;;16.28;30.27;100247.44;5031113;28;20106;-53
2022/02/06 11:29:46;;;;;;;3.70;2.60;;;;;;;16.28;31.16;100237.53;5030845;28;20036;-39
2022/02/06 11:32:13;;;;;;;3.60;2.60;;;;;;;16.48;29.74;100242.59;5031295;28;20449;-38
2022/02/06 11:34:42;;;;;;;4.25;3.10;;;;;;;16.67;30.37;100232.59;5034338;28;20464;-38
2022/02/06 11:43:49;;;;;;;4.05;3.17;;;;;;;16.38;30.02;100219.00;5046965;28;20130;-39
2022/02/06 11:46:23;;;;;;;5.60;3.28;;;;;;;16.19;30.38;100220.94;5030963;28;20029;-38
2022/02/06 11:48:49;;;;;;;6.40;3.25;;;;;;;15.73;30.62;100208.13;5031282;28;20029;-38
2022/02/06 11:51:18;;;;;;;4.15;3.22;;;;;;;15.60;30.78;100212.59;5046582;28;20041;-39
2022/02/06 11:53:43;;;;;;;4.68;3.35;;;;;;;15.66;30.71;100200.16;5031228;28;20104;-39
2022/02/06 11:56:34;;;;;;;4.82;3.03;;;;;;;15.74;30.52;100199.84;5029611;28;20029;-39
2022/02/06 11:59:13;;;;;;;10.57;6.78;;;;;;;15.67;31.41;100190.22;5030780;28;20377;-39
2022/02/06 12:01:41;;;;;;;14.77;8.18;;;;;;;15.87;30.69;100190.81;5030759;28;20060;-38
2022/02/06 12:04:19;;;;;;;5.22;3.30;;;;;;;15.83;29.93;100193.13;5030684;28;20071;-38
2022/02/06 12:06:48;;;;;;;6.43;3.20;;;;;;;16.01;30.72;100186.06;5034432;28;20025;-38
2022/02/06 12:09:28;;;;;;;5.82;3.08;;;;;;;15.85;30.34;100184.88;5050251;28;20478;-38
2022/02/06 12:12:06;;;;;;;5.57;3.50;;;;;;;16.23;29.88;100170.28;5050518;28;20197;-38
2022/02/06 12:14:37;;;;;;;4.43;3.30;;;;;;;16.06;30.50;100172.81;5050407;28;20400;-38
2022/02/06 12:20:04;;;;;;;4.88;3.38;;;;;;;16.18;30.54;100164.78;5050899;28;20067;-38
2022/02/06 12:22:29;;;;;;;5.03;3.60;;;;;;;16.30;29.65;100164.81;5050566;28;20021;-38
2022/02/06 12:25:27;;;;;;;4.97;3.40;;;;;;;16.50;30.02;100167.16;5050370;28;20393;-38
2022/02/06 12:28:22;;;;;;;5.53;3.20;;;;;;;15.92;30.18;100156.06;5050377;28;20075;-38
2022/02/06 12:30:48;;;;;;;4.32;3.25;;;;;;;16.29;29.79;100150.56;5051305;28;20098;-38
2022/02/06 12:33:21;;;;;;;6.85;3.33;;;;;;;16.08;29.78;100149.22;5052428;28;20033;-38
2022/02/06 12:38:31;;;;;;;5.90;3.45;;;;;;;16.37;29.96;100144.03;5053888;28;20094;-39
2022/02/06 12:40:57;;;;;;;4.75;2.95;;;;;;;16.10;29.57;100122.97;5053880;28;20037;-38
2022/02/06 12:43:28;;;;;;;4.75;3.00;;;;;;;16.74;29.10;100131.19;5054139;28;20024;-39
2022/02/06 12:45:53;;;;;;;4.50;2.78;;;;;;;16.74;28.25;100128.50;5052772;28;20025;-38
2022/02/06 12:48:21;;;;;;;5.20;3.03;;;;;;;16.49;29.63;100128.75;5052620;28;20087;-40
2022/02/06 12:50:47;;;;;;;3.97;2.92;;;;;;;16.83;29.16;100128.16;5053976;28;20029;-39
2022/02/06 12:53:17;;;;;;;5.93;3.20;;;;;;;17.35;27.95;100122.81;5053812;28;20025;-39
2022/02/06 12:55:44;;;;;;;3.78;2.70;;;;;;;16.95;28.19;100120.94;5053621;28;20039;-38
2022/02/06 12:58:11;;;;;;;4.72;3.03;;;;;;;16.55;28.82;100117.06;5053919;28;20047;-39
2022/02/06 13:00:43;;;;;;;4.45;2.85;;;;;;;16.24;28.15;100120.91;5053858;28;20055;-38
2022/02/06 13:03:29;;;;;;;6.10;3.63;;;;;;;16.11;29.36;100116.56;5053788;28;20052;-38
2022/02/06 13:06:01;;;;;;;4.82;3.55;;;;;;;16.21;28.76;100119.50;5053761;28;20036;-41
2022/02/06 13:08:27;;;;;;;4.65;2.83;;;;;;;17.23;28.11;100113.97;5052641;28;20048;-40
2022/02/06 13:11:01;;;;;;;3.58;2.50;;;;;;;16.83;28.43;100120.09;5053514;28;20048;-51
2022/02/06 13:13:34;;;;;;;4.78;2.80;;;;;;;16.56;28.84;100109.81;5053328;28;20532;-49
2022/02/06 13:16:34;;;;;;;3.60;2.55;;;;;;;16.25;28.89;100109.09;5053507;28;20028;-51
2022/02/06 13:29:38;;;;;;;5.75;3.10;;;;;;;16.20;28.78;100108.97;5053437;28;20388;-50
2022/02/06 13:34:59;;;;;;;9.32;3.20;;;;;;;15.68;29.34;100097.97;5052860;28;20489;-51
2022/02/06 13:37:27;;;;;;;5.00;3.30;;;;;;;16.04;29.25;100094.38;5050617;28;20041;-51
2022/02/06 13:39:54;;;;;;;6.03;3.28;;;;;;;15.92;29.53;100097.03;5050066;28;20036;-52
2022/02/06 13:42:21;;;;;;;4.90;3.40;;;;;;;16.07;30.09;100101.97;5052424;28;20039;-40
2022/02/06 13:45:13;;;;;;;5.13;3.70;;;;;;;15.91;29.85;100081.97;5047137;28;20182;-38
2022/02/06 13:47:40;;;;;;;6.68;3.85;;;;;;;15.72;29.95;100081.19;5048921;28;20413;-51
2022/02/06 13:50:09;;;;;;;5.53;3.40;;;;;;;15.87;29.42;100077.31;5035181;28;20033;-51
2022/02/06 13:52:34;;;;;;;5.28;3.63;;;;;;;15.66;30.00;100078.63;5052679;28;20473;-52
2022/02/06 13:55:06;;;;;;;5.95;3.50;;;;;;;15.66;29.55;100075.94;5034969;28;20028;-50
2022/02/06 13:57:35;;;;;;;5.57;3.50;;;;;;;15.52;29.80;100070.75;5052611;28;20086;-51
2022/02/06 14:00:27;;;;;;;6.45;3.70;;;;;;;16.38;29.11;100065.91;5052625;28;20029;-52
2022/02/06 14:02:53;;;;;;;6.93;4.03;;;;;;;15.88;29.20;100071.72;5051446;28;20029;-51
2022/02/06 14:05:21;;;;;;;6.50;4.72;;;;;;;15.99;29.74;100072.75;5051579;28;20112;-39
2022/02/06 14:08:08;;;;;;;5.38;3.80;;;;;;;16.25;28.92;100068.81;5052511;28;20029;-38
2022/02/06 14:10:59;;;;;;;7.47;3.50;;;;;;;15.75;29.48;100064.66;5052240;28;20064;-39
2022/02/06 14:13:25;;;;;;;6.68;3.58;;;;;;;15.38;30.17;100050.53;5052295;28;20191;-37
2022/02/06 14:16:09;;;;;;;7.50;3.75;;;;;;;15.36;30.83;100055.28;5051936;28;20482;-39